sensor_id;sensor_type;location;lat;lon;timestamp;P1;durP1;ratioP1;P2;durP2;ratioP2
1412;SDS011;701;52.526;13.408;2023-04-01T00:00:51;10.00;;;2.58;;
1412;SDS011;701;52.526;13.408;2023-04-01T00:03:18;11.95;;;3.10;;
1412;SDS011;701;52.526;13.408;2023-04-01T00:05:45;12.02;;;2.63;;
1412;SDS011;701;52.526;13.408;2023-04-01T00:08:12;9.23;;;2.87;;
1412;SDS011;701;52.526;13.408;2023-04-01T00:10:38;5.47;;;1.83;;
1412;SDS011;701;52.526;13.408;2023-04-01T00:13:04;9.35;;;2.50;;
1412;SDS011;701;52.526;13.408;2023-04-01T00:15:31;7.35;;;2.80;;
1412;SDS011;701;52.526;13.408;2023-04-01T00:17:57;12.00;;;2.97;;
1412;SDS011;701;52.526;13.408;2023-04-01T00:20:24;12.98;;;3.33;;
1412;SDS011;701;52.526;13.408;2023-04-01T00:22:50;8.70;;;2.40;;
1412;SDS011;701;52.526;13.408;2023-04-01T00:25:16;6.45;;;2.00;;
1412;SDS011;701;52.526;13.408;2023-04-01T00:27:42;11.48;;;2.67;;
1412;SDS011;701;52.526;13.408;2023-04-01T00:30:08;11.85;;;3.15;;
1412;SDS011;701;52.526;13.408;2023-04-01T00:32:34;13.55;;;3.30;;
1412;SDS011;701;52.526;13.408;2023-04-01T00:35:00;8.85;;;2.42;;
1412;SDS011;701;52.526;13.408;2023-04-01T00:37:27;8.55;;;3.13;;
1412;SDS011;701;52.526;13.408;2023-04-01T00:39:53;9.40;;;1.70;;
1412;SDS011;701;52.526;13.408;2023-04-01T00:42:19;5.85;;;1.58;;
1412;SDS011;701;52.526;13.408;2023-04-01T00:44:49;10.90;;;2.55;;
1412;SDS011;701;52.526;13.408;2023-04-01T00:47:16;7.93;;;2.78;;
1412;SDS011;701;52.526;13.408;2023-04-01T00:49:44;5.22;;;2.08;;
1412;SDS011;701;52.526;13.408;2023-04-01T00:52:14;6.07;;;2.10;;
1412;SDS011;701;52.526;13.408;2023-04-01T00:54:44;7.38;;;2.30;;
1412;SDS011;701;52.526;13.408;2023-04-01T00:57:20;6.13;;;1.80;;
1412;SDS011;701;52.526;13.408;2023-04-01T01:00:00;7.93;;;2.10;;
1412;SDS011;701;52.526;13.408;2023-04-01T01:02:25;5.72;;;1.92;;
1412;SDS011;701;52.526;13.408;2023-04-01T01:04:51;10.77;;;2.33;;
1412;SDS011;701;52.526;13.408;2023-04-01T01:12:54;5.67;;;2.03;;
1412;SDS011;701;52.526;13.408;2023-04-01T01:15:29;8.02;;;2.13;;
1412;SDS011;701;52.526;13.408;2023-04-01T01:20:57;5.88;;;1.90;;
1412;SDS011;701;52.526;13.408;2023-04-01T01:27:28;8.60;;;1.93;;
1412;SDS011;701;52.526;13.408;2023-04-01T01:37:22;6.43;;;1.65;;
1412;SDS011;701;52.526;13.408;2023-04-01T01:39:52;5.22;;;1.73;;
1412;SDS011;701;52.526;13.408;2023-04-01T01:42:21;6.55;;;1.90;;
1412;SDS011;701;52.526;13.408;2023-04-01T01:44:51;6.40;;;1.90;;
1412;SDS011;701;52.526;13.408;2023-04-01T01:47:19;6.80;;;1.67;;
1412;SDS011;701;52.526;13.408;2023-04-01T01:49:46;6.80;;;1.60;;
1412;SDS011;701;52.526;13.408;2023-04-01T01:52:12;4.93;;;1.55;;
1412;SDS011;701;52.526;13.408;2023-04-01T01:54:51;5.75;;;1.70;;
1412;SDS011;701;52.526;13.408;2023-04-01T01:57:22;6.32;;;1.52;;
1412;SDS011;701;52.526;13.408;2023-04-01T01:59:52;8.38;;;1.80;;
1412;SDS011;701;52.526;13.408;2023-04-01T02:02:25;6.32;;;1.98;;
1412;SDS011;701;52.526;13.408;2023-04-01T02:04:56;6.78;;;1.90;;
1412;SDS011;701;52.526;13.408;2023-04-01T02:07:24;6.75;;;1.80;;
1412;SDS011;701;52.526;13.408;2023-04-01T02:09:52;5.47;;;1.50;;
1412;SDS011;701;52.526;13.408;2023-04-01T02:12:19;7.00;;;1.70;;
1412;SDS011;701;52.526;13.408;2023-04-01T02:14:49;5.13;;;1.67;;
1412;SDS011;701;52.526;13.408;2023-04-01T02:17:20;4.90;;;1.80;;
1412;SDS011;701;52.526;13.408;2023-04-01T02:19:55;5.70;;;1.67;;
1412;SDS011;701;52.526;13.408;2023-04-01T02:22:31;5.28;;;1.63;;
1412;SDS011;701;52.526;13.408;2023-04-01T02:25:07;6.90;;;1.67;;
1412;SDS011;701;52.526;13.408;2023-04-01T02:27:36;7.18;;;1.98;;
1412;SDS011;701;52.526;13.408;2023-04-01T02:30:03;7.68;;;1.80;;
1412;SDS011;701;52.526;13.408;2023-04-01T02:32:30;7.15;;;1.65;;
1412;SDS011;701;52.526;13.408;2023-04-01T02:34:58;7.75;;;1.92;;
1412;SDS011;701;52.526;13.408;2023-04-01T02:37:25;4.97;;;1.63;;
1412;SDS011;701;52.526;13.408;2023-04-01T02:39:51;5.80;;;1.70;;
1412;SDS011;701;52.526;13.408;2023-04-01T02:42:17;8.18;;;1.85;;
1412;SDS011;701;52.526;13.408;2023-04-01T02:44:43;7.17;;;1.90;;
1412;SDS011;701;52.526;13.408;2023-04-01T02:47:09;6.30;;;1.77;;
1412;SDS011;701;52.526;13.408;2023-04-01T02:49:35;5.80;;;1.58;;
1412;SDS011;701;52.526;13.408;2023-04-01T02:52:00;7.20;;;1.60;;
1412;SDS011;701;52.526;13.408;2023-04-01T02:54:26;6.65;;;1.70;;
1412;SDS011;701;52.526;13.408;2023-04-01T02:56:52;5.30;;;1.50;;
1412;SDS011;701;52.526;13.408;2023-04-01T02:59:18;6.88;;;1.60;;
1412;SDS011;701;52.526;13.408;2023-04-01T03:01:43;7.10;;;1.57;;
1412;SDS011;701;52.526;13.408;2023-04-01T03:04:09;5.35;;;1.73;;
1412;SDS011;701;52.526;13.408;2023-04-01T03:06:35;5.70;;;1.52;;
1412;SDS011;701;52.526;13.408;2023-04-01T03:09:01;5.50;;;1.50;;
1412;SDS011;701;52.526;13.408;2023-04-01T03:11:28;5.78;;;1.30;;
1412;SDS011;701;52.526;13.408;2023-04-01T03:13:54;8.70;;;1.70;;
1412;SDS011;701;52.526;13.408;2023-04-01T03:16:20;5.90;;;1.57;;
1412;SDS011;701;52.526;13.408;2023-04-01T03:18:45;6.47;;;1.63;;
1412;SDS011;701;52.526;13.408;2023-04-01T03:21:12;5.38;;;1.67;;
1412;SDS011;701;52.526;13.408;2023-04-01T03:23:42;5.60;;;1.40;;
1412;SDS011;701;52.526;13.408;2023-04-01T03:26:08;7.07;;;1.80;;
1412;SDS011;701;52.526;13.408;2023-04-01T03:28:34;7.00;;;1.80;;
1412;SDS011;701;52.526;13.408;2023-04-01T03:31:00;7.30;;;1.83;;
1412;SDS011;701;52.526;13.408;2023-04-01T03:33:29;7.60;;;1.60;;
1412;SDS011;701;52.526;13.408;2023-04-01T03:35:54;5.38;;;1.63;;
1412;SDS011;701;52.526;13.408;2023-04-01T03:38:20;6.57;;;1.50;;
1412;SDS011;701;52.526;13.408;2023-04-01T03:40:46;9.75;;;1.70;;
1412;SDS011;701;52.526;13.408;2023-04-01T03:43:12;7.75;;;1.50;;
1412;SDS011;701;52.526;13.408;2023-04-01T03:45:49;7.60;;;1.88;;
1412;SDS011;701;52.526;13.408;2023-04-01T03:48:16;6.40;;;2.07;;
1412;SDS011;701;52.526;13.408;2023-04-01T03:50:43;8.52;;;3.97;;
1412;SDS011;701;52.526;13.408;2023-04-01T03:53:09;11.70;;;2.95;;
1412;SDS011;701;52.526;13.408;2023-04-01T03:55:38;8.82;;;2.75;;
1412;SDS011;701;52.526;13.408;2023-04-01T03:58:05;7.97;;;2.40;;
1412;SDS011;701;52.526;13.408;2023-04-01T04:00:32;8.10;;;1.90;;
1412;SDS011;701;52.526;13.408;2023-04-01T04:02:59;7.45;;;2.05;;
1412;SDS011;701;52.526;13.408;2023-04-01T04:05:30;6.63;;;1.90;;
1412;SDS011;701;52.526;13.408;2023-04-01T04:07:56;9.52;;;1.70;;
1412;SDS011;701;52.526;13.408;2023-04-01T04:10:22;9.65;;;1.77;;
1412;SDS011;701;52.526;13.408;2023-04-01T04:12:50;5.87;;;1.80;;
1412;SDS011;701;52.526;13.408;2023-04-01T04:15:18;6.45;;;1.85;;
1412;SDS011;701;52.526;13.408;2023-04-01T04:17:44;6.32;;;1.88;;
1412;SDS011;701;52.526;13.408;2023-04-01T04:20:10;7.18;;;1.90;;
1412;SDS011;701;52.526;13.408;2023-04-01T04:22:37;6.18;;;1.80;;
1412;SDS011;701;52.526;13.408;2023-04-01T04:25:05;6.88;;;1.55;;
1412;SDS011;701;52.526;13.408;2023-04-01T04:27:32;7.63;;;2.00;;
1412;SDS011;701;52.526;13.408;2023-04-01T04:30:06;10.63;;;2.10;;
1412;SDS011;701;52.526;13.408;2023-04-01T04:32:33;6.97;;;1.88;;
1412;SDS011;701;52.526;13.408;2023-04-01T04:34:59;9.18;;;2.10;;
1412;SDS011;701;52.526;13.408;2023-04-01T04:37:24;7.43;;;2.05;;
1412;SDS011;701;52.526;13.408;2023-04-01T04:39:51;7.63;;;2.10;;
1412;SDS011;701;52.526;13.408;2023-04-01T04:42:17;7.82;;;1.90;;
1412;SDS011;701;52.526;13.408;2023-04-01T04:44:44;11.03;;;4.20;;
1412;SDS011;701;52.526;13.408;2023-04-01T04:47:10;8.45;;;2.42;;
1412;SDS011;701;52.526;13.408;2023-04-01T04:49:36;7.70;;;2.20;;
1412;SDS011;701;52.526;13.408;2023-04-01T04:52:06;7.72;;;2.00;;
1412;SDS011;701;52.526;13.408;2023-04-01T04:54:32;8.67;;;2.57;;
1412;SDS011;701;52.526;13.408;2023-04-01T04:57:00;8.02;;;2.10;;
1412;SDS011;701;52.526;13.408;2023-04-01T04:59:30;7.07;;;2.50;;
1412;SDS011;701;52.526;13.408;2023-04-01T05:02:10;6.47;;;2.00;;
1412;SDS011;701;52.526;13.408;2023-04-01T05:04:36;9.10;;;1.90;;
1412;SDS011;701;52.526;13.408;2023-04-01T05:07:03;9.50;;;2.40;;
1412;SDS011;701;52.526;13.408;2023-04-01T05:09:30;7.00;;;2.60;;
1412;SDS011;701;52.526;13.408;2023-04-01T05:11:57;8.35;;;2.30;;
1412;SDS011;701;52.526;13.408;2023-04-01T05:14:25;9.02;;;2.42;;
1412;SDS011;701;52.526;13.408;2023-04-01T05:16:57;8.15;;;2.60;;
1412;SDS011;701;52.526;13.408;2023-04-01T05:19:23;10.37;;;2.50;;
1412;SDS011;701;52.526;13.408;2023-04-01T05:21:49;6.97;;;2.50;;
1412;SDS011;701;52.526;13.408;2023-04-01T05:24:15;8.82;;;2.72;;
1412;SDS011;701;52.526;13.408;2023-04-01T05:26:41;7.80;;;2.57;;
1412;SDS011;701;52.526;13.408;2023-04-01T05:29:07;7.68;;;2.17;;
1412;SDS011;701;52.526;13.408;2023-04-01T05:31:33;8.65;;;2.30;;
1412;SDS011;701;52.526;13.408;2023-04-01T05:34:00;8.73;;;2.30;;
1412;SDS011;701;52.526;13.408;2023-04-01T05:36:26;8.80;;;2.33;;
1412;SDS011;701;52.526;13.408;2023-04-01T05:38:56;8.57;;;2.13;;
1412;SDS011;701;52.526;13.408;2023-04-01T05:41:24;6.50;;;2.10;;
1412;SDS011;701;52.526;13.408;2023-04-01T05:43:50;7.43;;;2.30;;
1412;SDS011;701;52.526;13.408;2023-04-01T05:46:34;6.70;;;2.03;;
1412;SDS011;701;52.526;13.408;2023-04-01T05:49:10;9.17;;;2.37;;
1412;SDS011;701;52.526;13.408;2023-04-01T05:51:36;9.15;;;1.90;;
1412;SDS011;701;52.526;13.408;2023-04-01T05:54:03;6.05;;;1.90;;
1412;SDS011;701;52.526;13.408;2023-04-01T05:56:30;7.53;;;2.13;;
1412;SDS011;701;52.526;13.408;2023-04-01T05:58:57;6.47;;;2.22;;
1412;SDS011;701;52.526;13.408;2023-04-01T06:01:23;7.85;;;2.33;;
1412;SDS011;701;52.526;13.408;2023-04-01T06:03:49;6.63;;;2.17;;
1412;SDS011;701;52.526;13.408;2023-04-01T06:06:16;7.67;;;2.13;;
1412;SDS011;701;52.526;13.408;2023-04-01T06:08:49;10.43;;;2.10;;
1412;SDS011;701;52.526;13.408;2023-04-01T06:11:23;8.18;;;2.55;;
1412;SDS011;701;52.526;13.408;2023-04-01T06:16:59;8.30;;;2.08;;
1412;SDS011;701;52.526;13.408;2023-04-01T06:22:08;7.30;;;2.00;;
1412;SDS011;701;52.526;13.408;2023-04-01T06:31:02;11.65;;;2.40;;
1412;SDS011;701;52.526;13.408;2023-04-01T06:36:57;7.45;;;2.53;;
1412;SDS011;701;52.526;13.408;2023-04-01T06:39:46;6.60;;;2.20;;
1412;SDS011;701;52.526;13.408;2023-04-01T06:49:50;7.47;;;2.67;;
1412;SDS011;701;52.526;13.408;2023-04-01T06:55:38;10.80;;;2.85;;
1412;SDS011;701;52.526;13.408;2023-04-01T06:58:25;11.13;;;3.35;;
1412;SDS011;701;52.526;13.408;2023-04-01T07:00:56;9.73;;;3.10;;
1412;SDS011;701;52.526;13.408;2023-04-01T07:03:36;8.60;;;3.73;;
1412;SDS011;701;52.526;13.408;2023-04-01T07:06:32;8.88;;;3.63;;
1412;SDS011;701;52.526;13.408;2023-04-01T07:09:09;7.35;;;2.58;;
1412;SDS011;701;52.526;13.408;2023-04-01T07:12:21;12.07;;;3.03;;
1412;SDS011;701;52.526;13.408;2023-04-01T07:18:14;9.13;;;2.57;;
1412;SDS011;701;52.526;13.408;2023-04-01T07:20:46;6.38;;;2.20;;
1412;SDS011;701;52.526;13.408;2023-04-01T07:23:20;9.30;;;2.65;;
1412;SDS011;701;52.526;13.408;2023-04-01T07:26:29;7.68;;;2.38;;
1412;SDS011;701;52.526;13.408;2023-04-01T07:29:14;7.30;;;2.13;;
1412;SDS011;701;52.526;13.408;2023-04-01T07:37:31;7.13;;;2.55;;
1412;SDS011;701;52.526;13.408;2023-04-01T07:40:28;8.85;;;2.40;;
1412;SDS011;701;52.526;13.408;2023-04-01T07:48:53;8.18;;;2.70;;
1412;SDS011;701;52.526;13.408;2023-04-01T07:51:35;8.07;;;3.70;;
1412;SDS011;701;52.526;13.408;2023-04-01T07:54:16;8.65;;;3.00;;
1412;SDS011;701;52.526;13.408;2023-04-01T07:56:52;7.35;;;3.13;;
1412;SDS011;701;52.526;13.408;2023-04-01T08:05:59;7.05;;;2.20;;
1412;SDS011;701;52.526;13.408;2023-04-01T08:08:50;7.57;;;2.17;;
1412;SDS011;701;52.526;13.408;2023-04-01T08:14:52;7.60;;;3.10;;
1412;SDS011;701;52.526;13.408;2023-04-01T08:17:36;6.00;;;2.20;;
1412;SDS011;701;52.526;13.408;2023-04-01T08:20:18;7.43;;;2.45;;
1412;SDS011;701;52.526;13.408;2023-04-01T08:25:48;5.43;;;1.98;;
1412;SDS011;701;52.526;13.408;2023-04-01T08:28:36;6.17;;;1.90;;
1412;SDS011;701;52.526;13.408;2023-04-01T08:31:12;5.40;;;2.15;;
1412;SDS011;701;52.526;13.408;2023-04-01T08:33:44;5.80;;;2.22;;
1412;SDS011;701;52.526;13.408;2023-04-01T08:56:00;9.65;;;5.28;;
1412;SDS011;701;52.526;13.408;2023-04-01T09:01:54;10.63;;;5.38;;
1412;SDS011;701;52.526;13.408;2023-04-01T09:42:07;11.25;;;6.53;;
1412;SDS011;701;52.526;13.408;2023-04-01T09:52:45;11.55;;;6.88;;
1412;SDS011;701;52.526;13.408;2023-04-01T10:15:40;9.82;;;5.97;;
1412;SDS011;701;52.526;13.408;2023-04-01T10:24:21;10.00;;;6.22;;
1412;SDS011;701;52.526;13.408;2023-04-01T10:27:19;11.23;;;7.10;;
1412;SDS011;701;52.526;13.408;2023-04-01T10:33:32;15.10;;;6.30;;
1412;SDS011;701;52.526;13.408;2023-04-01T10:36:28;11.13;;;6.53;;
1412;SDS011;701;52.526;13.408;2023-04-01T10:42:41;11.65;;;7.07;;
1412;SDS011;701;52.526;13.408;2023-04-01T10:49:16;12.40;;;7.50;;
1412;SDS011;701;52.526;13.408;2023-04-01T10:51:59;11.23;;;6.88;;
1412;SDS011;701;52.526;13.408;2023-04-01T11:13:53;11.23;;;6.70;;
1412;SDS011;701;52.526;13.408;2023-04-01T11:28:20;8.90;;;5.45;;
1412;SDS011;701;52.526;13.408;2023-04-01T11:37:25;7.95;;;4.53;;
1412;SDS011;701;52.526;13.408;2023-04-01T11:40:54;7.63;;;4.07;;
1412;SDS011;701;52.526;13.408;2023-04-01T12:01:01;6.45;;;3.40;;
1412;SDS011;701;52.526;13.408;2023-04-01T12:12:33;13.20;;;8.48;;
1412;SDS011;701;52.526;13.408;2023-04-01T12:18:33;13.77;;;8.30;;
1412;SDS011;701;52.526;13.408;2023-04-01T12:21:34;12.30;;;7.70;;
1412;SDS011;701;52.526;13.408;2023-04-01T12:26:55;12.25;;;7.15;;
1412;SDS011;701;52.526;13.408;2023-04-01T12:37:53;10.65;;;6.20;;
1412;SDS011;701;52.526;13.408;2023-04-01T12:49:33;12.00;;;6.30;;
1412;SDS011;701;52.526;13.408;2023-04-01T13:04:15;14.45;;;9.52;;
1412;SDS011;701;52.526;13.408;2023-04-01T13:10:03;15.82;;;10.27;;
1412;SDS011;701;52.526;13.408;2023-04-01T13:27:21;14.90;;;9.32;;
1412;SDS011;701;52.526;13.408;2023-04-01T13:32:47;13.52;;;9.00;;
1412;SDS011;701;52.526;13.408;2023-04-01T13:39:05;13.25;;;9.05;;
1412;SDS011;701;52.526;13.408;2023-04-01T13:44:28;13.83;;;8.30;;
1412;SDS011;701;52.526;13.408;2023-04-01T13:49:57;12.38;;;8.15;;
1412;SDS011;701;52.526;13.408;2023-04-01T13:52:50;13.05;;;7.82;;
1412;SDS011;701;52.526;13.408;2023-04-01T13:58:04;10.23;;;6.93;;
1412;SDS011;701;52.526;13.408;2023-04-01T14:09:23;12.75;;;7.53;;
1412;SDS011;701;52.526;13.408;2023-04-01T14:12:19;10.73;;;6.40;;
1412;SDS011;701;52.526;13.408;2023-04-01T14:15:22;11.13;;;6.82;;
1412;SDS011;701;52.526;13.408;2023-04-01T14:18:09;11.18;;;6.05;;
1412;SDS011;701;52.526;13.408;2023-04-01T14:20:39;10.07;;;6.18;;
1412;SDS011;701;52.526;13.408;2023-04-01T14:34:44;10.45;;;5.97;;
1412;SDS011;701;52.526;13.408;2023-04-01T14:48:56;9.60;;;5.47;;
1412;SDS011;701;52.526;13.408;2023-04-01T14:56:47;8.98;;;5.70;;
1412;SDS011;701;52.526;13.408;2023-04-01T14:59:28;10.13;;;5.93;;
1412;SDS011;701;52.526;13.408;2023-04-01T15:02:21;10.43;;;5.93;;
1412;SDS011;701;52.526;13.408;2023-04-01T15:05:05;9.38;;;5.45;;
1412;SDS011;701;52.526;13.408;2023-04-01T15:24:26;9.32;;;5.72;;
1412;SDS011;701;52.526;13.408;2023-04-01T15:27:13;9.82;;;5.45;;
1412;SDS011;701;52.526;13.408;2023-04-01T15:32:32;9.43;;;5.07;;
1412;SDS011;701;52.526;13.408;2023-04-01T15:56:44;11.98;;;6.57;;
1412;SDS011;701;52.526;13.408;2023-04-01T16:23:20;9.03;;;4.83;;
1412;SDS011;701;52.526;13.408;2023-04-01T16:29:30;10.48;;;6.18;;
1412;SDS011;701;52.526;13.408;2023-04-01T16:43:38;10.55;;;5.80;;
1412;SDS011;701;52.526;13.408;2023-04-01T16:49:03;10.63;;;5.32;;
1412;SDS011;701;52.526;13.408;2023-04-01T16:59:45;9.43;;;4.85;;
1412;SDS011;701;52.526;13.408;2023-04-01T17:02:31;8.70;;;4.65;;
1412;SDS011;701;52.526;13.408;2023-04-01T17:08:01;12.10;;;5.22;;
1412;SDS011;701;52.526;13.408;2023-04-01T17:19:24;10.90;;;4.90;;
1412;SDS011;701;52.526;13.408;2023-04-01T17:27:35;10.32;;;6.40;;
1412;SDS011;701;52.526;13.408;2023-04-01T17:35:44;9.93;;;5.63;;
1412;SDS011;701;52.526;13.408;2023-04-01T17:38:39;9.93;;;5.40;;
1412;SDS011;701;52.526;13.408;2023-04-01T17:43:58;10.52;;;5.63;;
1412;SDS011;701;52.526;13.408;2023-04-01T17:46:56;12.30;;;5.87;;
1412;SDS011;701;52.526;13.408;2023-04-01T18:02:43;9.38;;;4.90;;
1412;SDS011;701;52.526;13.408;2023-04-01T18:10:38;13.02;;;5.97;;
1412;SDS011;701;52.526;13.408;2023-04-01T18:18:44;8.40;;;4.95;;
1412;SDS011;701;52.526;13.408;2023-04-01T18:26:39;10.13;;;5.43;;
1412;SDS011;701;52.526;13.408;2023-04-01T18:29:18;9.73;;;5.60;;
1412;SDS011;701;52.526;13.408;2023-04-01T18:45:54;10.23;;;5.03;;
1412;SDS011;701;52.526;13.408;2023-04-01T18:53:45;11.13;;;5.97;;
1412;SDS011;701;52.526;13.408;2023-04-01T18:56:24;10.45;;;5.57;;
1412;SDS011;701;52.526;13.408;2023-04-01T19:04:50;13.20;;;6.70;;
1412;SDS011;701;52.526;13.408;2023-04-01T19:13:29;12.93;;;6.32;;
1412;SDS011;701;52.526;13.408;2023-04-01T19:21:39;14.33;;;6.67;;
1412;SDS011;701;52.526;13.408;2023-04-01T19:27:27;14.75;;;7.30;;
1412;SDS011;701;52.526;13.408;2023-04-01T19:30:02;16.25;;;7.32;;
1412;SDS011;701;52.526;13.408;2023-04-01T19:40:19;13.98;;;7.13;;
1412;SDS011;701;52.526;13.408;2023-04-01T19:43:03;15.45;;;7.18;;
1412;SDS011;701;52.526;13.408;2023-04-01T19:45:55;16.83;;;7.95;;
1412;SDS011;701;52.526;13.408;2023-04-01T19:48:44;16.47;;;7.83;;
1412;SDS011;701;52.526;13.408;2023-04-01T19:52:05;14.02;;;6.82;;
1412;SDS011;701;52.526;13.408;2023-04-01T19:54:35;14.80;;;7.15;;
1412;SDS011;701;52.526;13.408;2023-04-01T20:16:01;16.50;;;8.30;;
1412;SDS011;701;52.526;13.408;2023-04-01T20:26:39;18.92;;;8.85;;
1412;SDS011;701;52.526;13.408;2023-04-01T20:31:58;16.13;;;8.05;;
1412;SDS011;701;52.526;13.408;2023-04-01T20:34:32;17.57;;;8.10;;
1412;SDS011;701;52.526;13.408;2023-04-01T20:45:15;17.67;;;7.70;;
1412;SDS011;701;52.526;13.408;2023-04-01T21:09:53;16.23;;;6.90;;
1412;SDS011;701;52.526;13.408;2023-04-01T21:12:50;13.90;;;6.20;;
1412;SDS011;701;52.526;13.408;2023-04-01T21:21:24;13.48;;;5.93;;
1412;SDS011;701;52.526;13.408;2023-04-01T21:24:28;14.48;;;6.13;;
1412;SDS011;701;52.526;13.408;2023-04-01T21:27:23;12.43;;;5.15;;
1412;SDS011;701;52.526;13.408;2023-04-01T21:40:59;11.93;;;5.90;;
1412;SDS011;701;52.526;13.408;2023-04-01T21:49:55;17.05;;;7.22;;
1412;SDS011;701;52.526;13.408;2023-04-01T21:53:30;15.05;;;7.65;;
1412;SDS011;701;52.526;13.408;2023-04-01T21:55:56;17.75;;;7.82;;
1412;SDS011;701;52.526;13.408;2023-04-01T22:09:34;11.57;;;5.80;;
1412;SDS011;701;52.526;13.408;2023-04-01T22:12:19;11.45;;;5.53;;
1412;SDS011;701;52.526;13.408;2023-04-01T22:21:09;12.77;;;5.53;;
1412;SDS011;701;52.526;13.408;2023-04-01T22:24:01;10.80;;;5.45;;
1412;SDS011;701;52.526;13.408;2023-04-01T22:27:12;10.70;;;5.45;;
1412;SDS011;701;52.526;13.408;2023-04-01T22:32:43;11.25;;;4.93;;
1412;SDS011;701;52.526;13.408;2023-04-01T22:38:21;11.52;;;4.40;;
1412;SDS011;701;52.526;13.408;2023-04-01T22:43:21;11.40;;;3.97;;
1412;SDS011;701;52.526;13.408;2023-04-01T22:46:03;10.60;;;4.18;;
1412;SDS011;701;52.526;13.408;2023-04-01T22:48:50;8.27;;;4.35;;
1412;SDS011;701;52.526;13.408;2023-04-01T22:51:42;9.18;;;3.65;;
1412;SDS011;701;52.526;13.408;2023-04-01T22:54:32;7.95;;;3.88;;
1412;SDS011;701;52.526;13.408;2023-04-01T22:57:05;10.07;;;4.27;;
1412;SDS011;701;52.526;13.408;2023-04-01T23:00:00;8.85;;;4.38;;
1412;SDS011;701;52.526;13.408;2023-04-01T23:02:28;11.07;;;4.50;;
1412;SDS011;701;52.526;13.408;2023-04-01T23:04:59;10.20;;;4.50;;
1412;SDS011;701;52.526;13.408;2023-04-01T23:10:23;10.80;;;5.13;;
1412;SDS011;701;52.526;13.408;2023-04-01T23:12:53;9.52;;;5.18;;
1412;SDS011;701;52.526;13.408;2023-04-01T23:15:23;10.80;;;5.18;;
1412;SDS011;701;52.526;13.408;2023-04-01T23:17:50;10.20;;;5.90;;
1412;SDS011;701;52.526;13.408;2023-04-01T23:26:00;8.68;;;3.97;;
1412;SDS011;701;52.526;13.408;2023-04-01T23:33:53;7.35;;;3.53;;
1412;SDS011;701;52.526;13.408;2023-04-01T23:36:21;10.20;;;3.60;;
1412;SDS011;701;52.526;13.408;2023-04-01T23:38:47;7.43;;;3.38;;
1412;SDS011;701;52.526;13.408;2023-04-01T23:41:27;10.48;;;3.90;;
1412;SDS011;701;52.526;13.408;2023-04-01T23:44:05;8.98;;;3.70;;
1412;SDS011;701;52.526;13.408;2023-04-01T23:46:36;8.85;;;4.43;;
1412;SDS011;701;52.526;13.408;2023-04-01T23:49:04;11.43;;;4.43;;
1412;SDS011;701;52.526;13.408;2023-04-01T23:51:38;13.00;;;4.95;;
1412;SDS011;701;52.526;13.408;2023-04-01T23:54:18;11.45;;;4.97;;
1412;SDS011;701;52.526;13.408;2023-04-01T23:56:54;9.65;;;5.13;;
1412;SDS011;701;52.526;13.408;2023-04-01T23:59:30;11.75;;;4.97;;
